sensor_id;sensor_type;location;lat;lon;timestamp;P1;durP1;ratioP1;P2;durP2;ratioP2
43504;SDS011;29098;48.184;16.298;2023-06-14T00:01:34;6.28;;;3.67;;
43504;SDS011;29098;48.184;16.298;2023-06-14T00:04:00;5.70;;;3.45;;
43504;SDS011;29098;48.184;16.298;2023-06-14T00:06:26;6.72;;;3.55;;
43504;SDS011;29098;48.184;16.298;2023-06-14T00:08:53;5.35;;;3.38;;
43504;SDS011;29098;48.184;16.298;2023-06-14T00:11:19;11.50;;;4.53;;
43504;SDS011;29098;48.184;16.298;2023-06-14T00:13:45;7.20;;;3.92;;
43504;SDS011;29098;48.184;16.298;2023-06-14T00:16:10;6.28;;;3.42;;
43504;SDS011;29098;48.184;16.298;2023-06-14T00:18:36;7.22;;;3.90;;
43504;SDS011;29098;48.184;16.298;2023-06-14T00:21:03;5.95;;;3.50;;
43504;SDS011;29098;48.184;16.298;2023-06-14T00:23:29;10.95;;;4.38;;
43504;SDS011;29098;48.184;16.298;2023-06-14T00:25:55;8.48;;;3.88;;
43504;SDS011;29098;48.184;16.298;2023-06-14T00:28:20;5.53;;;3.22;;
43504;SDS011;29098;48.184;16.298;2023-06-14T00:30:46;7.95;;;4.00;;
43504;SDS011;29098;48.184;16.298;2023-06-14T00:33:12;9.07;;;3.97;;
43504;SDS011;29098;48.184;16.298;2023-06-14T00:35:37;8.05;;;3.90;;
43504;SDS011;29098;48.184;16.298;2023-06-14T00:38:03;5.43;;;3.55;;
43504;SDS011;29098;48.184;16.298;2023-06-14T00:40:28;7.72;;;3.97;;
43504;SDS011;29098;48.184;16.298;2023-06-14T00:42:54;11.35;;;5.03;;
43504;SDS011;29098;48.184;16.298;2023-06-14T00:45:19;7.13;;;3.67;;
43504;SDS011;29098;48.184;16.298;2023-06-14T00:47:45;9.73;;;3.40;;
43504;SDS011;29098;48.184;16.298;2023-06-14T00:50:11;7.38;;;3.72;;
43504;SDS011;29098;48.184;16.298;2023-06-14T00:52:36;12.77;;;3.47;;
43504;SDS011;29098;48.184;16.298;2023-06-14T00:55:02;6.03;;;3.33;;
43504;SDS011;29098;48.184;16.298;2023-06-14T00:57:28;6.80;;;3.42;;
43504;SDS011;29098;48.184;16.298;2023-06-14T00:59:54;8.60;;;4.30;;
43504;SDS011;29098;48.184;16.298;2023-06-14T01:02:20;5.18;;;2.90;;
43504;SDS011;29098;48.184;16.298;2023-06-14T01:04:46;7.63;;;3.55;;
43504;SDS011;29098;48.184;16.298;2023-06-14T01:12:21;8.38;;;3.88;;
43504;SDS011;29098;48.184;16.298;2023-06-14T01:14:54;5.82;;;3.58;;
43504;SDS011;29098;48.184;16.298;2023-06-14T01:17:22;6.30;;;3.67;;
43504;SDS011;29098;48.184;16.298;2023-06-14T01:19:49;7.05;;;3.92;;
43504;SDS011;29098;48.184;16.298;2023-06-14T01:22:23;7.93;;;3.53;;
43504;SDS011;29098;48.184;16.298;2023-06-14T01:24:51;10.48;;;3.63;;
43504;SDS011;29098;48.184;16.298;2023-06-14T01:27:20;7.18;;;3.65;;
43504;SDS011;29098;48.184;16.298;2023-06-14T01:29:54;6.05;;;3.75;;
43504;SDS011;29098;48.184;16.298;2023-06-14T01:32:21;5.35;;;3.45;;
43504;SDS011;29098;48.184;16.298;2023-06-14T01:34:49;6.68;;;3.67;;
43504;SDS011;29098;48.184;16.298;2023-06-14T01:37:15;6.38;;;3.67;;
43504;SDS011;29098;48.184;16.298;2023-06-14T01:39:42;8.55;;;3.63;;
43504;SDS011;29098;48.184;16.298;2023-06-14T01:42:09;7.13;;;4.03;;
43504;SDS011;29098;48.184;16.298;2023-06-14T01:44:36;5.55;;;3.88;;
43504;SDS011;29098;48.184;16.298;2023-06-14T01:47:02;5.55;;;3.72;;
43504;SDS011;29098;48.184;16.298;2023-06-14T01:49:28;7.18;;;4.22;;
43504;SDS011;29098;48.184;16.298;2023-06-14T01:51:53;7.32;;;3.38;;
43504;SDS011;29098;48.184;16.298;2023-06-14T01:54:18;7.05;;;3.58;;
43504;SDS011;29098;48.184;16.298;2023-06-14T01:56:44;5.55;;;3.63;;
43504;SDS011;29098;48.184;16.298;2023-06-14T01:59:10;5.68;;;3.60;;
43504;SDS011;29098;48.184;16.298;2023-06-14T02:01:35;7.15;;;3.78;;
43504;SDS011;29098;48.184;16.298;2023-06-14T02:04:01;6.65;;;4.45;;
43504;SDS011;29098;48.184;16.298;2023-06-14T02:06:27;6.45;;;3.92;;
43504;SDS011;29098;48.184;16.298;2023-06-14T02:08:53;6.82;;;3.75;;
43504;SDS011;29098;48.184;16.298;2023-06-14T02:11:18;6.13;;;3.30;;
43504;SDS011;29098;48.184;16.298;2023-06-14T02:13:44;5.22;;;3.95;;
43504;SDS011;29098;48.184;16.298;2023-06-14T02:16:10;6.80;;;3.55;;
43504;SDS011;29098;48.184;16.298;2023-06-14T02:18:35;5.95;;;3.63;;
43504;SDS011;29098;48.184;16.298;2023-06-14T02:21:01;5.95;;;3.60;;
43504;SDS011;29098;48.184;16.298;2023-06-14T02:23:26;5.63;;;3.75;;
43504;SDS011;29098;48.184;16.298;2023-06-14T02:25:52;6.55;;;4.07;;
43504;SDS011;29098;48.184;16.298;2023-06-14T02:28:17;6.75;;;3.70;;
43504;SDS011;29098;48.184;16.298;2023-06-14T02:30:43;5.57;;;3.85;;
43504;SDS011;29098;48.184;16.298;2023-06-14T02:33:09;5.45;;;3.97;;
43504;SDS011;29098;48.184;16.298;2023-06-14T02:35:37;6.40;;;3.40;;
43504;SDS011;29098;48.184;16.298;2023-06-14T02:38:03;7.38;;;4.00;;
43504;SDS011;29098;48.184;16.298;2023-06-14T02:40:28;6.18;;;4.00;;
43504;SDS011;29098;48.184;16.298;2023-06-14T02:42:53;6.10;;;3.55;;
43504;SDS011;29098;48.184;16.298;2023-06-14T02:45:19;6.25;;;4.18;;
43504;SDS011;29098;48.184;16.298;2023-06-14T02:47:45;6.50;;;3.75;;
43504;SDS011;29098;48.184;16.298;2023-06-14T02:50:11;6.65;;;3.90;;
43504;SDS011;29098;48.184;16.298;2023-06-14T02:52:37;6.55;;;3.70;;
43504;SDS011;29098;48.184;16.298;2023-06-14T02:55:03;8.23;;;4.15;;
43504;SDS011;29098;48.184;16.298;2023-06-14T02:57:28;6.15;;;3.67;;
43504;SDS011;29098;48.184;16.298;2023-06-14T02:59:54;6.40;;;3.90;;
43504;SDS011;29098;48.184;16.298;2023-06-14T03:02:20;5.35;;;3.60;;
43504;SDS011;29098;48.184;16.298;2023-06-14T03:04:45;6.75;;;4.15;;
43504;SDS011;29098;48.184;16.298;2023-06-14T03:07:11;6.20;;;4.20;;
43504;SDS011;29098;48.184;16.298;2023-06-14T03:09:37;6.53;;;3.67;;
43504;SDS011;29098;48.184;16.298;2023-06-14T03:12:04;7.38;;;3.40;;
43504;SDS011;29098;48.184;16.298;2023-06-14T03:14:31;5.75;;;4.20;;
43504;SDS011;29098;48.184;16.298;2023-06-14T03:16:57;6.65;;;4.20;;
43504;SDS011;29098;48.184;16.298;2023-06-14T03:19:24;5.53;;;3.80;;
43504;SDS011;29098;48.184;16.298;2023-06-14T03:21:50;6.70;;;3.40;;
43504;SDS011;29098;48.184;16.298;2023-06-14T03:24:15;7.90;;;3.35;;
43504;SDS011;29098;48.184;16.298;2023-06-14T03:26:46;8.27;;;4.25;;
43504;SDS011;29098;48.184;16.298;2023-06-14T03:29:11;6.18;;;4.18;;
43504;SDS011;29098;48.184;16.298;2023-06-14T03:31:41;5.47;;;3.55;;
43504;SDS011;29098;48.184;16.298;2023-06-14T03:34:24;6.38;;;3.50;;
43504;SDS011;29098;48.184;16.298;2023-06-14T03:36:50;7.13;;;3.95;;
43504;SDS011;29098;48.184;16.298;2023-06-14T03:39:15;7.28;;;4.15;;
43504;SDS011;29098;48.184;16.298;2023-06-14T03:41:40;5.22;;;3.53;;
43504;SDS011;29098;48.184;16.298;2023-06-14T03:44:06;6.43;;;3.75;;
43504;SDS011;29098;48.184;16.298;2023-06-14T03:46:31;5.75;;;3.75;;
43504;SDS011;29098;48.184;16.298;2023-06-14T03:48:57;8.20;;;3.53;;
43504;SDS011;29098;48.184;16.298;2023-06-14T03:51:22;6.95;;;3.70;;
43504;SDS011;29098;48.184;16.298;2023-06-14T03:53:48;7.05;;;3.60;;
43504;SDS011;29098;48.184;16.298;2023-06-14T03:56:13;7.78;;;4.20;;
43504;SDS011;29098;48.184;16.298;2023-06-14T03:58:38;7.05;;;3.83;;
43504;SDS011;29098;48.184;16.298;2023-06-14T04:01:04;9.25;;;3.83;;
43504;SDS011;29098;48.184;16.298;2023-06-14T04:03:32;7.80;;;3.88;;
43504;SDS011;29098;48.184;16.298;2023-06-14T04:05:58;7.05;;;3.80;;
43504;SDS011;29098;48.184;16.298;2023-06-14T04:08:24;6.18;;;3.97;;
43504;SDS011;29098;48.184;16.298;2023-06-14T04:10:50;7.82;;;4.13;;
43504;SDS011;29098;48.184;16.298;2023-06-14T04:13:15;8.68;;;4.20;;
43504;SDS011;29098;48.184;16.298;2023-06-14T04:15:42;7.97;;;4.57;;
43504;SDS011;29098;48.184;16.298;2023-06-14T04:18:08;7.22;;;3.63;;
43504;SDS011;29098;48.184;16.298;2023-06-14T04:20:34;8.48;;;3.70;;
43504;SDS011;29098;48.184;16.298;2023-06-14T04:23:10;7.35;;;3.80;;
43504;SDS011;29098;48.184;16.298;2023-06-14T04:28:11;6.38;;;3.90;;
43504;SDS011;29098;48.184;16.298;2023-06-14T04:30:37;7.55;;;3.65;;
43504;SDS011;29098;48.184;16.298;2023-06-14T04:33:04;8.77;;;4.25;;
43504;SDS011;29098;48.184;16.298;2023-06-14T04:35:30;10.45;;;4.30;;
43504;SDS011;29098;48.184;16.298;2023-06-14T04:37:57;8.82;;;5.50;;
43504;SDS011;29098;48.184;16.298;2023-06-14T04:40:23;9.05;;;4.57;;
43504;SDS011;29098;48.184;16.298;2023-06-14T04:42:48;6.70;;;4.35;;
43504;SDS011;29098;48.184;16.298;2023-06-14T04:45:15;7.93;;;4.20;;
43504;SDS011;29098;48.184;16.298;2023-06-14T04:47:42;9.68;;;4.22;;
43504;SDS011;29098;48.184;16.298;2023-06-14T04:50:09;7.68;;;4.40;;
43504;SDS011;29098;48.184;16.298;2023-06-14T04:52:36;6.38;;;4.00;;
43504;SDS011;29098;48.184;16.298;2023-06-14T04:55:02;8.65;;;3.90;;
43504;SDS011;29098;48.184;16.298;2023-06-14T04:57:28;7.68;;;4.45;;
43504;SDS011;29098;48.184;16.298;2023-06-14T04:59:53;6.05;;;4.20;;
43504;SDS011;29098;48.184;16.298;2023-06-14T05:02:20;7.45;;;4.30;;
43504;SDS011;29098;48.184;16.298;2023-06-14T05:04:48;7.47;;;4.82;;
43504;SDS011;29098;48.184;16.298;2023-06-14T05:07:14;7.93;;;4.55;;
43504;SDS011;29098;48.184;16.298;2023-06-14T05:09:40;10.07;;;4.25;;
43504;SDS011;29098;48.184;16.298;2023-06-14T05:12:05;8.40;;;4.57;;
43504;SDS011;29098;48.184;16.298;2023-06-14T05:14:33;7.28;;;4.53;;
43504;SDS011;29098;48.184;16.298;2023-06-14T05:16:59;7.03;;;4.60;;
43504;SDS011;29098;48.184;16.298;2023-06-14T05:19:24;7.63;;;4.43;;
43504;SDS011;29098;48.184;16.298;2023-06-14T05:21:50;6.63;;;4.70;;
43504;SDS011;29098;48.184;16.298;2023-06-14T05:24:16;9.18;;;4.85;;
43504;SDS011;29098;48.184;16.298;2023-06-14T05:26:42;9.40;;;5.03;;
43504;SDS011;29098;48.184;16.298;2023-06-14T05:29:08;11.00;;;4.90;;
43504;SDS011;29098;48.184;16.298;2023-06-14T05:31:33;6.68;;;4.28;;
43504;SDS011;29098;48.184;16.298;2023-06-14T05:33:59;7.10;;;4.57;;
43504;SDS011;29098;48.184;16.298;2023-06-14T05:36:24;7.50;;;4.18;;
43504;SDS011;29098;48.184;16.298;2023-06-14T05:38:50;8.32;;;4.47;;
43504;SDS011;29098;48.184;16.298;2023-06-14T05:41:22;7.82;;;6.28;;
43504;SDS011;29098;48.184;16.298;2023-06-14T05:43:48;7.80;;;4.45;;
43504;SDS011;29098;48.184;16.298;2023-06-14T05:46:13;9.40;;;4.38;;
43504;SDS011;29098;48.184;16.298;2023-06-14T05:48:39;7.68;;;4.72;;
43504;SDS011;29098;48.184;16.298;2023-06-14T05:51:05;7.68;;;5.35;;
43504;SDS011;29098;48.184;16.298;2023-06-14T05:53:33;10.60;;;4.60;;
43504;SDS011;29098;48.184;16.298;2023-06-14T05:55:59;7.82;;;4.60;;
43504;SDS011;29098;48.184;16.298;2023-06-14T05:58:24;10.23;;;4.25;;
43504;SDS011;29098;48.184;16.298;2023-06-14T06:00:50;8.93;;;4.57;;
43504;SDS011;29098;48.184;16.298;2023-06-14T06:03:15;7.32;;;4.88;;
43504;SDS011;29098;48.184;16.298;2023-06-14T06:05:41;12.27;;;5.10;;
43504;SDS011;29098;48.184;16.298;2023-06-14T06:08:06;8.15;;;4.45;;
43504;SDS011;29098;48.184;16.298;2023-06-14T06:10:32;6.53;;;4.78;;
43504;SDS011;29098;48.184;16.298;2023-06-14T06:12:57;6.82;;;3.83;;
43504;SDS011;29098;48.184;16.298;2023-06-14T06:15:23;7.88;;;3.92;;
43504;SDS011;29098;48.184;16.298;2023-06-14T06:17:48;8.70;;;5.22;;
43504;SDS011;29098;48.184;16.298;2023-06-14T06:20:14;8.50;;;4.47;;
43504;SDS011;29098;48.184;16.298;2023-06-14T06:22:39;9.85;;;4.78;;
43504;SDS011;29098;48.184;16.298;2023-06-14T06:25:05;6.68;;;4.03;;
43504;SDS011;29098;48.184;16.298;2023-06-14T06:27:31;7.45;;;4.63;;
43504;SDS011;29098;48.184;16.298;2023-06-14T06:29:57;9.05;;;4.10;;
43504;SDS011;29098;48.184;16.298;2023-06-14T06:32:22;10.05;;;3.90;;
43504;SDS011;29098;48.184;16.298;2023-06-14T06:34:47;6.88;;;3.90;;
43504;SDS011;29098;48.184;16.298;2023-06-14T06:37:13;7.15;;;4.70;;
43504;SDS011;29098;48.184;16.298;2023-06-14T06:39:39;7.25;;;4.22;;
43504;SDS011;29098;48.184;16.298;2023-06-14T06:42:04;6.70;;;4.53;;
43504;SDS011;29098;48.184;16.298;2023-06-14T06:44:31;5.45;;;4.47;;
43504;SDS011;29098;48.184;16.298;2023-06-14T06:46:57;8.38;;;4.50;;
43504;SDS011;29098;48.184;16.298;2023-06-14T06:49:22;8.40;;;4.28;;
43504;SDS011;29098;48.184;16.298;2023-06-14T06:54:43;8.73;;;4.03;;
43504;SDS011;29098;48.184;16.298;2023-06-14T06:57:08;8.52;;;4.18;;
43504;SDS011;29098;48.184;16.298;2023-06-14T06:59:34;5.05;;;3.60;;
43504;SDS011;29098;48.184;16.298;2023-06-14T07:01:59;7.70;;;4.20;;
43504;SDS011;29098;48.184;16.298;2023-06-14T07:04:25;6.32;;;4.25;;
43504;SDS011;29098;48.184;16.298;2023-06-14T07:06:50;11.55;;;4.80;;
43504;SDS011;29098;48.184;16.298;2023-06-14T07:09:16;7.20;;;4.05;;
43504;SDS011;29098;48.184;16.298;2023-06-14T07:11:42;10.20;;;4.22;;
43504;SDS011;29098;48.184;16.298;2023-06-14T07:14:09;10.40;;;4.38;;
43504;SDS011;29098;48.184;16.298;2023-06-14T07:16:34;10.50;;;4.20;;
43504;SDS011;29098;48.184;16.298;2023-06-14T07:19:01;6.95;;;3.72;;
43504;SDS011;29098;48.184;16.298;2023-06-14T07:21:27;5.63;;;3.15;;
43504;SDS011;29098;48.184;16.298;2023-06-14T07:23:53;7.40;;;4.07;;
43504;SDS011;29098;48.184;16.298;2023-06-14T07:26:19;10.88;;;4.15;;
43504;SDS011;29098;48.184;16.298;2023-06-14T07:28:45;6.78;;;3.53;;
43504;SDS011;29098;48.184;16.298;2023-06-14T07:31:11;5.85;;;3.83;;
43504;SDS011;29098;48.184;16.298;2023-06-14T07:33:40;8.32;;;4.00;;
43504;SDS011;29098;48.184;16.298;2023-06-14T07:36:06;8.00;;;4.10;;
43504;SDS011;29098;48.184;16.298;2023-06-14T07:38:32;6.38;;;3.55;;
43504;SDS011;29098;48.184;16.298;2023-06-14T07:40:57;6.47;;;3.90;;
43504;SDS011;29098;48.184;16.298;2023-06-14T07:43:22;10.13;;;4.38;;
43504;SDS011;29098;48.184;16.298;2023-06-14T07:45:48;6.55;;;3.33;;
43504;SDS011;29098;48.184;16.298;2023-06-14T07:48:13;7.10;;;3.65;;
43504;SDS011;29098;48.184;16.298;2023-06-14T07:50:39;8.30;;;4.53;;
43504;SDS011;29098;48.184;16.298;2023-06-14T07:53:04;6.47;;;3.65;;
43504;SDS011;29098;48.184;16.298;2023-06-14T07:55:30;6.95;;;3.78;;
43504;SDS011;29098;48.184;16.298;2023-06-14T07:57:57;7.63;;;4.05;;
43504;SDS011;29098;48.184;16.298;2023-06-14T08:00:23;6.63;;;3.70;;
43504;SDS011;29098;48.184;16.298;2023-06-14T08:02:48;7.03;;;3.53;;
43504;SDS011;29098;48.184;16.298;2023-06-14T08:05:15;7.35;;;4.25;;
43504;SDS011;29098;48.184;16.298;2023-06-14T08:07:40;6.43;;;3.60;;
43504;SDS011;29098;48.184;16.298;2023-06-14T08:10:08;6.93;;;3.97;;
43504;SDS011;29098;48.184;16.298;2023-06-14T08:12:34;6.32;;;3.55;;
43504;SDS011;29098;48.184;16.298;2023-06-14T08:14:59;5.93;;;3.42;;
43504;SDS011;29098;48.184;16.298;2023-06-14T08:17:25;7.38;;;3.70;;
43504;SDS011;29098;48.184;16.298;2023-06-14T08:19:51;6.70;;;3.67;;
43504;SDS011;29098;48.184;16.298;2023-06-14T08:22:17;9.02;;;3.83;;
43504;SDS011;29098;48.184;16.298;2023-06-14T08:24:43;7.85;;;3.30;;
43504;SDS011;29098;48.184;16.298;2023-06-14T08:27:09;6.63;;;3.72;;
43504;SDS011;29098;48.184;16.298;2023-06-14T08:29:35;7.10;;;3.60;;
43504;SDS011;29098;48.184;16.298;2023-06-14T08:32:00;6.55;;;3.58;;
43504;SDS011;29098;48.184;16.298;2023-06-14T08:34:26;7.32;;;3.35;;
43504;SDS011;29098;48.184;16.298;2023-06-14T08:36:52;5.78;;;3.25;;
43504;SDS011;29098;48.184;16.298;2023-06-14T08:39:17;6.03;;;3.60;;
43504;SDS011;29098;48.184;16.298;2023-06-14T08:41:45;8.80;;;3.55;;
43504;SDS011;29098;48.184;16.298;2023-06-14T08:44:11;5.78;;;3.40;;
43504;SDS011;29098;48.184;16.298;2023-06-14T08:46:37;6.93;;;3.67;;
43504;SDS011;29098;48.184;16.298;2023-06-14T08:49:03;7.63;;;3.95;;
43504;SDS011;29098;48.184;16.298;2023-06-14T08:51:31;7.93;;;3.55;;
43504;SDS011;29098;48.184;16.298;2023-06-14T08:54:01;8.25;;;3.90;;
43504;SDS011;29098;48.184;16.298;2023-06-14T08:56:29;5.28;;;3.33;;
43504;SDS011;29098;48.184;16.298;2023-06-14T08:58:56;9.05;;;4.90;;
43504;SDS011;29098;48.184;16.298;2023-06-14T09:01:26;6.72;;;3.60;;
43504;SDS011;29098;48.184;16.298;2023-06-14T09:03:52;7.85;;;3.85;;
43504;SDS011;29098;48.184;16.298;2023-06-14T09:06:19;6.30;;;4.28;;
43504;SDS011;29098;48.184;16.298;2023-06-14T09:08:47;6.05;;;3.45;;
43504;SDS011;29098;48.184;16.298;2023-06-14T09:11:14;7.18;;;3.83;;
43504;SDS011;29098;48.184;16.298;2023-06-14T09:13:41;7.38;;;2.97;;
43504;SDS011;29098;48.184;16.298;2023-06-14T09:16:07;5.97;;;3.42;;
43504;SDS011;29098;48.184;16.298;2023-06-14T09:18:37;7.07;;;3.13;;
43504;SDS011;29098;48.184;16.298;2023-06-14T09:21:05;8.50;;;3.40;;
43504;SDS011;29098;48.184;16.298;2023-06-14T09:23:33;5.78;;;4.22;;
43504;SDS011;29098;48.184;16.298;2023-06-14T09:26:05;7.70;;;3.67;;
43504;SDS011;29098;48.184;16.298;2023-06-14T09:28:32;8.18;;;3.85;;
43504;SDS011;29098;48.184;16.298;2023-06-14T09:30:57;6.22;;;3.13;;
43504;SDS011;29098;48.184;16.298;2023-06-14T09:33:23;7.43;;;3.53;;
43504;SDS011;29098;48.184;16.298;2023-06-14T09:35:51;7.90;;;3.28;;
43504;SDS011;29098;48.184;16.298;2023-06-14T09:38:20;5.53;;;3.55;;
43504;SDS011;29098;48.184;16.298;2023-06-14T09:40:46;7.32;;;3.13;;
43504;SDS011;29098;48.184;16.298;2023-06-14T09:43:11;6.75;;;3.25;;
43504;SDS011;29098;48.184;16.298;2023-06-14T09:45:38;10.93;;;4.28;;
43504;SDS011;29098;48.184;16.298;2023-06-14T09:48:10;7.57;;;3.60;;
43504;SDS011;29098;48.184;16.298;2023-06-14T09:50:36;6.57;;;3.45;;
43504;SDS011;29098;48.184;16.298;2023-06-14T09:53:11;5.65;;;3.50;;
43504;SDS011;29098;48.184;16.298;2023-06-14T09:55:37;6.32;;;3.40;;
43504;SDS011;29098;48.184;16.298;2023-06-14T09:58:05;9.10;;;3.53;;
43504;SDS011;29098;48.184;16.298;2023-06-14T10:00:31;7.72;;;3.67;;
43504;SDS011;29098;48.184;16.298;2023-06-14T10:03:00;8.90;;;3.88;;
43504;SDS011;29098;48.184;16.298;2023-06-14T10:05:28;6.95;;;3.67;;
43504;SDS011;29098;48.184;16.298;2023-06-14T10:08:03;6.75;;;3.60;;
43504;SDS011;29098;48.184;16.298;2023-06-14T10:10:33;7.13;;;3.53;;
43504;SDS011;29098;48.184;16.298;2023-06-14T10:12:58;8.00;;;3.90;;
43504;SDS011;29098;48.184;16.298;2023-06-14T10:15:32;5.40;;;3.42;;
43504;SDS011;29098;48.184;16.298;2023-06-14T10:21:13;5.85;;;3.70;;
43504;SDS011;29098;48.184;16.298;2023-06-14T10:23:40;8.55;;;3.28;;
43504;SDS011;29098;48.184;16.298;2023-06-14T10:26:07;8.13;;;3.50;;
43504;SDS011;29098;48.184;16.298;2023-06-14T10:28:34;5.75;;;3.13;;
43504;SDS011;29098;48.184;16.298;2023-06-14T10:31:09;5.47;;;3.88;;
43504;SDS011;29098;48.184;16.298;2023-06-14T10:33:39;4.63;;;2.90;;
43504;SDS011;29098;48.184;16.298;2023-06-14T10:38:59;6.60;;;3.28;;
43504;SDS011;29098;48.184;16.298;2023-06-14T10:41:29;4.80;;;3.30;;
43504;SDS011;29098;48.184;16.298;2023-06-14T10:46:40;6.18;;;3.47;;
43504;SDS011;29098;48.184;16.298;2023-06-14T10:49:10;6.75;;;3.60;;
43504;SDS011;29098;48.184;16.298;2023-06-14T10:51:41;8.43;;;3.95;;
43504;SDS011;29098;48.184;16.298;2023-06-14T10:54:15;6.15;;;3.10;;
43504;SDS011;29098;48.184;16.298;2023-06-14T10:56:48;5.30;;;3.28;;
43504;SDS011;29098;48.184;16.298;2023-06-14T10:59:17;7.13;;;3.33;;
43504;SDS011;29098;48.184;16.298;2023-06-14T11:04:40;4.85;;;3.22;;
43504;SDS011;29098;48.184;16.298;2023-06-14T11:12:35;5.85;;;3.28;;
43504;SDS011;29098;48.184;16.298;2023-06-14T11:15:05;4.70;;;3.05;;
43504;SDS011;29098;48.184;16.298;2023-06-14T11:17:31;4.50;;;2.97;;
43504;SDS011;29098;48.184;16.298;2023-06-14T11:20:10;9.80;;;3.20;;
43504;SDS011;29098;48.184;16.298;2023-06-14T11:22:44;4.15;;;3.03;;
43504;SDS011;29098;48.184;16.298;2023-06-14T11:25:13;7.50;;;3.08;;
43504;SDS011;29098;48.184;16.298;2023-06-14T11:27:43;6.32;;;3.03;;
43504;SDS011;29098;48.184;16.298;2023-06-14T11:30:08;7.10;;;3.80;;
43504;SDS011;29098;48.184;16.298;2023-06-14T11:32:37;5.10;;;3.20;;
43504;SDS011;29098;48.184;16.298;2023-06-14T11:35:03;4.75;;;2.90;;
43504;SDS011;29098;48.184;16.298;2023-06-14T11:37:30;4.68;;;3.08;;
43504;SDS011;29098;48.184;16.298;2023-06-14T11:39:59;4.82;;;3.42;;
43504;SDS011;29098;48.184;16.298;2023-06-14T11:42:28;7.60;;;3.30;;
43504;SDS011;29098;48.184;16.298;2023-06-14T11:44:55;8.20;;;3.20;;
43504;SDS011;29098;48.184;16.298;2023-06-14T11:47:21;8.68;;;3.97;;
43504;SDS011;29098;48.184;16.298;2023-06-14T11:49:47;9.40;;;3.42;;
43504;SDS011;29098;48.184;16.298;2023-06-14T11:52:13;7.60;;;3.60;;
43504;SDS011;29098;48.184;16.298;2023-06-14T11:54:38;4.78;;;3.20;;
43504;SDS011;29098;48.184;16.298;2023-06-14T11:57:06;4.88;;;3.20;;
43504;SDS011;29098;48.184;16.298;2023-06-14T11:59:39;6.95;;;3.15;;
43504;SDS011;29098;48.184;16.298;2023-06-14T12:02:05;9.25;;;4.00;;
43504;SDS011;29098;48.184;16.298;2023-06-14T12:04:31;5.75;;;3.28;;
43504;SDS011;29098;48.184;16.298;2023-06-14T12:06:57;5.50;;;3.10;;
43504;SDS011;29098;48.184;16.298;2023-06-14T12:09:23;5.25;;;3.08;;
43504;SDS011;29098;48.184;16.298;2023-06-14T12:11:51;5.75;;;3.67;;
43504;SDS011;29098;48.184;16.298;2023-06-14T12:14:30;4.55;;;3.25;;
43504;SDS011;29098;48.184;16.298;2023-06-14T12:17:05;5.40;;;3.03;;
43504;SDS011;29098;48.184;16.298;2023-06-14T12:19:32;5.55;;;3.00;;
43504;SDS011;29098;48.184;16.298;2023-06-14T12:22:00;5.18;;;3.70;;
43504;SDS011;29098;48.184;16.298;2023-06-14T12:24:29;5.18;;;3.22;;
43504;SDS011;29098;48.184;16.298;2023-06-14T12:26:59;4.90;;;3.08;;
43504;SDS011;29098;48.184;16.298;2023-06-14T12:29:27;10.05;;;3.92;;
43504;SDS011;29098;48.184;16.298;2023-06-14T12:31:53;6.30;;;3.00;;
43504;SDS011;29098;48.184;16.298;2023-06-14T12:34:21;7.65;;;3.22;;
43504;SDS011;29098;48.184;16.298;2023-06-14T12:36:47;7.55;;;3.25;;
43504;SDS011;29098;48.184;16.298;2023-06-14T12:39:12;9.85;;;3.10;;
43504;SDS011;29098;48.184;16.298;2023-06-14T12:41:38;5.50;;;3.28;;
43504;SDS011;29098;48.184;16.298;2023-06-14T12:44:06;7.78;;;3.28;;
43504;SDS011;29098;48.184;16.298;2023-06-14T12:46:31;10.73;;;3.80;;
43504;SDS011;29098;48.184;16.298;2023-06-14T12:48:57;5.05;;;3.58;;
43504;SDS011;29098;48.184;16.298;2023-06-14T12:51:22;6.55;;;3.25;;
43504;SDS011;29098;48.184;16.298;2023-06-14T12:53:48;7.40;;;3.03;;
43504;SDS011;29098;48.184;16.298;2023-06-14T12:56:17;6.95;;;4.80;;
43504;SDS011;29098;48.184;16.298;2023-06-14T12:58:43;6.18;;;3.80;;
43504;SDS011;29098;48.184;16.298;2023-06-14T13:01:08;5.90;;;3.25;;
43504;SDS011;29098;48.184;16.298;2023-06-14T13:03:34;5.70;;;2.97;;
43504;SDS011;29098;48.184;16.298;2023-06-14T13:06:00;6.78;;;3.38;;
43504;SDS011;29098;48.184;16.298;2023-06-14T13:08:26;8.00;;;3.20;;
43504;SDS011;29098;48.184;16.298;2023-06-14T13:10:52;7.35;;;3.70;;
43504;SDS011;29098;48.184;16.298;2023-06-14T13:13:18;6.60;;;3.03;;
43504;SDS011;29098;48.184;16.298;2023-06-14T13:15:43;5.80;;;3.08;;
43504;SDS011;29098;48.184;16.298;2023-06-14T13:18:10;10.65;;;3.42;;
43504;SDS011;29098;48.184;16.298;2023-06-14T13:20:38;5.63;;;2.80;;
43504;SDS011;29098;48.184;16.298;2023-06-14T13:23:04;4.43;;;3.00;;
43504;SDS011;29098;48.184;16.298;2023-06-14T13:25:30;8.80;;;3.35;;
43504;SDS011;29098;48.184;16.298;2023-06-14T13:27:56;6.30;;;3.70;;
43504;SDS011;29098;48.184;16.298;2023-06-14T13:30:21;4.40;;;2.92;;
43504;SDS011;29098;48.184;16.298;2023-06-14T13:32:47;5.63;;;3.25;;
43504;SDS011;29098;48.184;16.298;2023-06-14T13:35:12;6.90;;;3.25;;
43504;SDS011;29098;48.184;16.298;2023-06-14T13:37:38;5.85;;;3.38;;
43504;SDS011;29098;48.184;16.298;2023-06-14T13:40:03;7.25;;;2.55;;
43504;SDS011;29098;48.184;16.298;2023-06-14T13:42:29;7.68;;;3.05;;
43504;SDS011;29098;48.184;16.298;2023-06-14T13:44:57;5.13;;;2.97;;
43504;SDS011;29098;48.184;16.298;2023-06-14T13:47:23;7.35;;;2.90;;
43504;SDS011;29098;48.184;16.298;2023-06-14T13:49:48;7.13;;;2.80;;
43504;SDS011;29098;48.184;16.298;2023-06-14T13:52:13;5.88;;;3.30;;
43504;SDS011;29098;48.184;16.298;2023-06-14T13:54:39;4.05;;;2.85;;
43504;SDS011;29098;48.184;16.298;2023-06-14T13:57:04;5.82;;;3.03;;
43504;SDS011;29098;48.184;16.298;2023-06-14T13:59:30;5.28;;;2.92;;
43504;SDS011;29098;48.184;16.298;2023-06-14T14:01:56;7.20;;;3.47;;
43504;SDS011;29098;48.184;16.298;2023-06-14T14:04:21;4.82;;;2.92;;
43504;SDS011;29098;48.184;16.298;2023-06-14T14:06:47;4.85;;;3.10;;
43504;SDS011;29098;48.184;16.298;2023-06-14T14:09:12;5.50;;;2.78;;
43504;SDS011;29098;48.184;16.298;2023-06-14T14:11:37;5.80;;;3.00;;
43504;SDS011;29098;48.184;16.298;2023-06-14T14:14:04;6.53;;;2.88;;
43504;SDS011;29098;48.184;16.298;2023-06-14T14:16:30;5.93;;;3.28;;
43504;SDS011;29098;48.184;16.298;2023-06-14T14:18:55;6.53;;;3.13;;
43504;SDS011;29098;48.184;16.298;2023-06-14T14:21:21;4.45;;;2.97;;
43504;SDS011;29098;48.184;16.298;2023-06-14T14:23:46;5.03;;;3.05;;
43504;SDS011;29098;48.184;16.298;2023-06-14T14:26:12;7.00;;;3.60;;
43504;SDS011;29098;48.184;16.298;2023-06-14T14:28:38;7.15;;;3.97;;
43504;SDS011;29098;48.184;16.298;2023-06-14T14:31:04;7.57;;;3.60;;
43504;SDS011;29098;48.184;16.298;2023-06-14T14:33:30;6.03;;;3.40;;
43504;SDS011;29098;48.184;16.298;2023-06-14T14:35:55;4.68;;;3.05;;
43504;SDS011;29098;48.184;16.298;2023-06-14T14:38:21;6.57;;;3.38;;
43504;SDS011;29098;48.184;16.298;2023-06-14T14:40:47;5.07;;;3.00;;
43504;SDS011;29098;48.184;16.298;2023-06-14T14:43:13;5.82;;;3.30;;
43504;SDS011;29098;48.184;16.298;2023-06-14T14:45:38;5.15;;;3.20;;
43504;SDS011;29098;48.184;16.298;2023-06-14T14:48:04;5.35;;;3.20;;
43504;SDS011;29098;48.184;16.298;2023-06-14T14:50:30;6.40;;;3.20;;
43504;SDS011;29098;48.184;16.298;2023-06-14T14:52:56;5.82;;;3.00;;
43504;SDS011;29098;48.184;16.298;2023-06-14T14:55:21;4.72;;;3.30;;
43504;SDS011;29098;48.184;16.298;2023-06-14T14:57:47;7.15;;;3.20;;